sensor_id;sensor_type;location;lat;lon;timestamp;pressure;altitude;pressure_sealevel;temperature;humidity
41688;BME280;27371;42.686;23.362;2023-11-19T00:01:40;162847.78;;;2.49;78.75
41688;BME280;27371;42.686;23.362;2023-11-19T00:04:06;162814.53;;;2.36;79.47
41688;BME280;27371;42.686;23.362;2023-11-19T00:06:31;162838.50;;;2.45;80.20
41688;BME280;27371;42.686;23.362;2023-11-19T00:08:57;162838.50;;;2.45;80.06
41688;BME280;27371;42.686;23.362;2023-11-19T00:11:22;162853.13;;;2.51;79.78
41688;BME280;27371;42.686;23.362;2023-11-19T00:13:48;162833.16;;;2.43;78.94
41688;BME280;27371;42.686;23.362;2023-11-19T00:16:13;162829.16;;;2.42;78.96
41688;BME280;27371;42.686;23.362;2023-11-19T00:18:39;162849.09;;;2.50;78.93
41688;BME280;27371;42.686;23.362;2023-11-19T00:21:05;162853.13;;;2.51;78.99
41688;BME280;27371;42.686;23.362;2023-11-19T00:23:30;162858.41;;;2.53;78.53
41688;BME280;27371;42.686;23.362;2023-11-19T00:25:56;162789.31;;;2.27;78.75
41688;BME280;27371;42.686;23.362;2023-11-19T00:28:21;162827.84;;;2.41;78.90
41688;BME280;27371;42.686;23.362;2023-11-19T00:30:47;162833.16;;;2.43;78.67
41688;BME280;27371;42.686;23.362;2023-11-19T00:33:12;162834.47;;;2.44;78.80
41688;BME280;27371;42.686;23.362;2023-11-19T00:35:38;162838.50;;;2.45;78.93
41688;BME280;27371;42.686;23.362;2023-11-19T00:38:03;162809.22;;;2.34;78.97
41688;BME280;27371;42.686;23.362;2023-11-19T00:40:29;162837.13;;;2.45;79.17
41688;BME280;27371;42.686;23.362;2023-11-19T00:42:54;162825.19;;;2.40;79.08
41688;BME280;27371;42.686;23.362;2023-11-19T00:45:20;162853.13;;;2.51;79.00
41688;BME280;27371;42.686;23.362;2023-11-19T00:47:46;162877.03;;;2.60;78.90
41688;BME280;27371;42.686;23.362;2023-11-19T00:50:11;162859.75;;;2.54;78.24
41688;BME280;27371;42.686;23.362;2023-11-19T00:52:38;162871.69;;;2.58;78.15
41688;BME280;27371;42.686;23.362;2023-11-19T00:55:04;162881.03;;;2.62;78.36
41688;BME280;27371;42.686;23.362;2023-11-19T00:57:33;162915.56;;;2.75;78.12
41688;BME280;27371;42.686;23.362;2023-11-19T00:59:59;162911.59;;;2.74;78.03
41688;BME280;27371;42.686;23.362;2023-11-19T01:02:25;162857.06;;;2.53;78.01
41688;BME280;27371;42.686;23.362;2023-11-19T01:04:50;162837.13;;;2.45;78.33
41688;BME280;27371;42.686;23.362;2023-11-19T01:07:16;162797.28;;;2.30;79.55
41688;BME280;27371;42.686;23.362;2023-11-19T01:09:42;162814.53;;;2.36;79.97
41688;BME280;27371;42.686;23.362;2023-11-19T01:12:08;162807.88;;;2.34;80.53
41688;BME280;27371;42.686;23.362;2023-11-19T01:14:34;162765.34;;;2.17;80.34
41688;BME280;27371;42.686;23.362;2023-11-19T01:17:00;162818.53;;;2.38;79.90
41688;BME280;27371;42.686;23.362;2023-11-19T01:19:26;162811.91;;;2.35;79.79
41688;BME280;27371;42.686;23.362;2023-11-19T01:21:53;162776.00;;;2.21;79.77
41688;BME280;27371;42.686;23.362;2023-11-19T01:24:19;162822.50;;;2.39;79.79
41688;BME280;27371;42.686;23.362;2023-11-19T01:26:45;162814.53;;;2.36;79.51
41688;BME280;27371;42.686;23.362;2023-11-19T01:29:14;162823.88;;;2.40;79.42
41688;BME280;27371;42.686;23.362;2023-11-19T01:31:45;162811.91;;;2.35;79.46
41688;BME280;27371;42.686;23.362;2023-11-19T01:34:10;162806.56;;;2.33;79.38
41688;BME280;27371;42.686;23.362;2023-11-19T01:36:36;162806.56;;;2.33;79.70
41688;BME280;27371;42.686;23.362;2023-11-19T01:39:02;162806.56;;;2.33;79.76
41688;BME280;27371;42.686;23.362;2023-11-19T01:41:33;162805.25;;;2.33;79.64
41688;BME280;27371;42.686;23.362;2023-11-19T01:43:59;162806.56;;;2.33;79.36
41688;BME280;27371;42.686;23.362;2023-11-19T01:46:24;162779.97;;;2.23;79.30
41688;BME280;27371;42.686;23.362;2023-11-19T01:48:52;162801.25;;;2.31;79.18
41688;BME280;27371;42.686;23.362;2023-11-19T01:51:17;162801.25;;;2.31;79.25
41688;BME280;27371;42.686;23.362;2023-11-19T01:53:43;162815.84;;;2.37;79.38
41688;BME280;27371;42.686;23.362;2023-11-19T01:56:12;162830.47;;;2.42;78.38
41688;BME280;27371;42.686;23.362;2023-11-19T01:58:39;162818.53;;;2.38;77.97
41688;BME280;27371;42.686;23.362;2023-11-19T02:01:06;162795.97;;;2.29;77.29
41688;BME280;27371;42.686;23.362;2023-11-19T02:03:32;162839.81;;;2.46;77.26
41688;BME280;27371;42.686;23.362;2023-11-19T02:05:59;162838.50;;;2.45;76.94
41688;BME280;27371;42.686;23.362;2023-11-19T02:08:25;162846.47;;;2.49;76.97
41688;BME280;27371;42.686;23.362;2023-11-19T02:10:51;162802.59;;;2.32;76.01
41688;BME280;27371;42.686;23.362;2023-11-19T02:13:20;162774.69;;;2.21;76.76
41688;BME280;27371;42.686;23.362;2023-11-19T02:15:46;162700.22;;;1.92;77.28
41688;BME280;27371;42.686;23.362;2023-11-19T02:20:44;162737.44;;;2.07;78.69
41688;BME280;27371;42.686;23.362;2023-11-19T02:23:09;162746.78;;;2.10;78.48
41688;BME280;27371;42.686;23.362;2023-11-19T02:25:35;162760.06;;;2.15;77.93
41688;BME280;27371;42.686;23.362;2023-11-19T02:28:03;162754.75;;;2.13;77.81
41688;BME280;27371;42.686;23.362;2023-11-19T02:30:29;162750.72;;;2.12;77.62
41688;BME280;27371;42.686;23.362;2023-11-19T02:32:58;162749.41;;;2.11;77.76
41688;BME280;27371;42.686;23.362;2023-11-19T02:35:26;162722.81;;;2.01;77.60
41688;BME280;27371;42.686;23.362;2023-11-19T02:37:52;162721.50;;;2.00;78.15
41688;BME280;27371;42.686;23.362;2023-11-19T02:40:17;162710.91;;;1.96;78.05
41688;BME280;27371;42.686;23.362;2023-11-19T02:42:43;162694.97;;;1.90;78.45
41688;BME280;27371;42.686;23.362;2023-11-19T02:45:09;162688.31;;;1.88;78.75
41688;BME280;27371;42.686;23.362;2023-11-19T02:47:43;162681.66;;;1.85;78.76
41688;BME280;27371;42.686;23.362;2023-11-19T02:50:10;162668.38;;;1.80;79.14
41688;BME280;27371;42.686;23.362;2023-11-19T02:52:42;162659.09;;;1.76;79.45
41688;BME280;27371;42.686;23.362;2023-11-19T02:55:08;162653.75;;;1.74;79.68
41688;BME280;27371;42.686;23.362;2023-11-19T02:57:44;162644.41;;;1.71;79.66
41688;BME280;27371;42.686;23.362;2023-11-19T03:00:22;162656.41;;;1.75;79.51
41688;BME280;27371;42.686;23.362;2023-11-19T03:03:01;162655.06;;;1.75;79.88
41688;BME280;27371;42.686;23.362;2023-11-19T03:05:48;162656.41;;;1.75;79.90
41688;BME280;27371;42.686;23.362;2023-11-19T03:08:15;162682.97;;;1.86;79.51
41688;BME280;27371;42.686;23.362;2023-11-19T03:10:41;162681.66;;;1.85;79.54
41688;BME280;27371;42.686;23.362;2023-11-19T03:13:11;162692.28;;;1.89;79.15
41688;BME280;27371;42.686;23.362;2023-11-19T03:15:39;162700.22;;;1.92;79.31
41688;BME280;27371;42.686;23.362;2023-11-19T03:18:04;162708.19;;;1.95;78.86
41688;BME280;27371;42.686;23.362;2023-11-19T03:20:30;162704.25;;;1.94;78.63
41688;BME280;27371;42.686;23.362;2023-11-19T03:22:56;162669.69;;;1.81;78.34
41688;BME280;27371;42.686;23.362;2023-11-19T03:25:25;162574.03;;;1.44;78.94
41688;BME280;27371;42.686;23.362;2023-11-19T03:27:52;162624.53;;;1.63;79.72
41688;BME280;27371;42.686;23.362;2023-11-19T03:30:18;162591.28;;;1.50;79.83
41688;BME280;27371;42.686;23.362;2023-11-19T03:32:46;162615.19;;;1.60;80.76
41688;BME280;27371;42.686;23.362;2023-11-19T03:35:11;162621.84;;;1.62;80.75
41688;BME280;27371;42.686;23.362;2023-11-19T03:37:37;162616.56;;;1.60;80.66
41688;BME280;27371;42.686;23.362;2023-11-19T03:40:03;162616.56;;;1.60;80.31
41688;BME280;27371;42.686;23.362;2023-11-19T03:42:29;162640.47;;;1.69;79.93
41688;BME280;27371;42.686;23.362;2023-11-19T03:44:58;162625.84;;;1.64;80.06
41688;BME280;27371;42.686;23.362;2023-11-19T03:47:23;162641.78;;;1.70;79.64
41688;BME280;27371;42.686;23.362;2023-11-19T03:49:50;162637.81;;;1.68;79.75
41688;BME280;27371;42.686;23.362;2023-11-19T03:52:17;162629.81;;;1.65;79.93
41688;BME280;27371;42.686;23.362;2023-11-19T03:54:43;162639.13;;;1.69;79.82
41688;BME280;27371;42.686;23.362;2023-11-19T03:57:09;162644.41;;;1.71;79.62
41688;BME280;27371;42.686;23.362;2023-11-19T03:59:38;162644.41;;;1.71;79.96
41688;BME280;27371;42.686;23.362;2023-11-19T04:02:03;162632.50;;;1.66;79.97
41688;BME280;27371;42.686;23.362;2023-11-19T04:04:29;162635.13;;;1.67;80.20
41688;BME280;27371;42.686;23.362;2023-11-19T04:06:55;162627.16;;;1.64;80.07
41688;BME280;27371;42.686;23.362;2023-11-19T04:09:20;162623.22;;;1.63;80.05
41688;BME280;27371;42.686;23.362;2023-11-19T04:11:46;162636.44;;;1.68;79.85
41688;BME280;27371;42.686;23.362;2023-11-19T04:14:13;162612.56;;;1.59;79.85
41688;BME280;27371;42.686;23.362;2023-11-19T04:16:39;162656.41;;;1.75;79.56
41688;BME280;27371;42.686;23.362;2023-11-19T04:19:04;162655.06;;;1.75;79.37
41688;BME280;27371;42.686;23.362;2023-11-19T04:21:30;162671.00;;;1.81;79.34
41688;BME280;27371;42.686;23.362;2023-11-19T04:23:56;162663.03;;;1.78;79.28
41688;BME280;27371;42.686;23.362;2023-11-19T04:26:21;162709.56;;;1.96;78.50
41688;BME280;27371;42.686;23.362;2023-11-19T04:28:47;162714.84;;;1.98;78.41
41688;BME280;27371;42.686;23.362;2023-11-19T04:31:17;162720.19;;;2.00;78.41
41688;BME280;27371;42.686;23.362;2023-11-19T04:33:43;162737.44;;;2.07;78.27
41688;BME280;27371;42.686;23.362;2023-11-19T04:36:10;162741.44;;;2.08;78.00
41688;BME280;27371;42.686;23.362;2023-11-19T04:38:35;162721.50;;;2.00;77.78
41688;BME280;27371;42.686;23.362;2023-11-19T04:41:02;162705.56;;;1.94;77.47
41688;BME280;27371;42.686;23.362;2023-11-19T04:43:31;162648.44;;;1.72;77.67
41688;BME280;27371;42.686;23.362;2023-11-19T04:45:56;162660.41;;;1.77;78.65
41688;BME280;27371;42.686;23.362;2023-11-19T04:48:22;162667.03;;;1.80;78.95
41688;BME280;27371;42.686;23.362;2023-11-19T04:50:48;162649.75;;;1.73;79.36
41688;BME280;27371;42.686;23.362;2023-11-19T04:53:14;162675.00;;;1.83;79.03
41688;BME280;27371;42.686;23.362;2023-11-19T04:55:41;162676.34;;;1.83;78.56
41688;BME280;27371;42.686;23.362;2023-11-19T04:58:06;162667.03;;;1.80;78.89
41688;BME280;27371;42.686;23.362;2023-11-19T05:00:32;162678.97;;;1.84;78.03
41688;BME280;27371;42.686;23.362;2023-11-19T05:02:57;162678.97;;;1.84;77.93
41688;BME280;27371;42.686;23.362;2023-11-19T05:05:23;162672.31;;;1.82;77.73
41688;BME280;27371;42.686;23.362;2023-11-19T05:07:49;162675.00;;;1.83;78.02
41688;BME280;27371;42.686;23.362;2023-11-19T05:10:14;162661.72;;;1.77;78.41
41688;BME280;27371;42.686;23.362;2023-11-19T05:12:40;162660.41;;;1.77;78.60
41688;BME280;27371;42.686;23.362;2023-11-19T05:15:06;162667.03;;;1.80;78.52
41688;BME280;27371;42.686;23.362;2023-11-19T05:17:32;162669.69;;;1.81;78.62
41688;BME280;27371;42.686;23.362;2023-11-19T05:19:58;162676.34;;;1.83;78.45
41688;BME280;27371;42.686;23.362;2023-11-19T05:22:23;162640.47;;;1.69;78.58
41688;BME280;27371;42.686;23.362;2023-11-19T05:24:49;162675.00;;;1.83;78.53
41688;BME280;27371;42.686;23.362;2023-11-19T05:27:14;162661.72;;;1.77;78.20
41688;BME280;27371;42.686;23.362;2023-11-19T05:29:40;162665.69;;;1.79;78.40
41688;BME280;27371;42.686;23.362;2023-11-19T05:32:07;162671.00;;;1.81;78.46
41688;BME280;27371;42.686;23.362;2023-11-19T05:34:32;162688.31;;;1.88;78.22
41688;BME280;27371;42.686;23.362;2023-11-19T05:36:58;162701.56;;;1.93;77.73
41688;BME280;27371;42.686;23.362;2023-11-19T05:39:23;162676.34;;;1.83;77.54
41688;BME280;27371;42.686;23.362;2023-11-19T05:41:49;162729.47;;;2.04;77.46
41688;BME280;27371;42.686;23.362;2023-11-19T05:44:15;162690.94;;;1.89;77.10
41688;BME280;27371;42.686;23.362;2023-11-19T05:46:41;162728.16;;;2.03;76.56
41688;BME280;27371;42.686;23.362;2023-11-19T05:49:08;162760.06;;;2.15;76.21
41688;BME280;27371;42.686;23.362;2023-11-19T05:51:40;162741.44;;;2.08;75.66
41688;BME280;27371;42.686;23.362;2023-11-19T05:54:07;162672.31;;;1.82;76.06
41688;BME280;27371;42.686;23.362;2023-11-19T05:56:33;162686.94;;;1.87;77.06
41688;BME280;27371;42.686;23.362;2023-11-19T05:58:59;162635.13;;;1.67;77.21
41688;BME280;27371;42.686;23.362;2023-11-19T06:01:33;162680.28;;;1.85;77.38
41688;BME280;27371;42.686;23.362;2023-11-19T06:03:59;162705.56;;;1.94;77.12
41688;BME280;27371;42.686;23.362;2023-11-19T06:06:26;162696.28;;;1.91;77.17
41688;BME280;27371;42.686;23.362;2023-11-19T06:08:52;162697.59;;;1.91;77.29
41688;BME280;27371;42.686;23.362;2023-11-19T06:11:17;162726.81;;;2.03;77.07
41688;BME280;27371;42.686;23.362;2023-11-19T06:13:46;162725.50;;;2.02;76.86
41688;BME280;27371;42.686;23.362;2023-11-19T06:16:13;162714.84;;;1.98;77.22
41688;BME280;27371;42.686;23.362;2023-11-19T06:18:38;162732.16;;;2.05;76.88
41688;BME280;27371;42.686;23.362;2023-11-19T06:21:04;162738.81;;;2.07;76.60
41688;BME280;27371;42.686;23.362;2023-11-19T06:23:30;162722.81;;;2.01;76.64
41688;BME280;27371;42.686;23.362;2023-11-19T06:25:55;162692.28;;;1.89;76.67
41688;BME280;27371;42.686;23.362;2023-11-19T06:28:21;162742.75;;;2.09;76.79
41688;BME280;27371;42.686;23.362;2023-11-19T06:30:46;162749.41;;;2.11;77.00
41688;BME280;27371;42.686;23.362;2023-11-19T06:33:14;162754.75;;;2.13;77.00
41688;BME280;27371;42.686;23.362;2023-11-19T06:35:40;162741.44;;;2.08;76.69
41688;BME280;27371;42.686;23.362;2023-11-19T06:38:05;162754.75;;;2.13;76.67
41688;BME280;27371;42.686;23.362;2023-11-19T06:40:34;162750.72;;;2.12;76.26
41688;BME280;27371;42.686;23.362;2023-11-19T06:43:03;162756.06;;;2.14;76.37
41688;BME280;27371;42.686;23.362;2023-11-19T06:45:29;162773.31;;;2.20;76.30
41688;BME280;27371;42.686;23.362;2023-11-19T06:47:55;162803.94;;;2.32;75.97
41688;BME280;27371;42.686;23.362;2023-11-19T06:50:20;162825.19;;;2.40;75.67
41688;BME280;27371;42.686;23.362;2023-11-19T06:52:46;162822.50;;;2.39;74.70
41688;BME280;27371;42.686;23.362;2023-11-19T06:55:12;162799.91;;;2.31;74.84
41688;BME280;27371;42.686;23.362;2023-11-19T06:57:38;162752.09;;;2.12;75.19
41688;BME280;27371;42.686;23.362;2023-11-19T07:00:05;162826.50;;;2.41;75.21
41688;BME280;27371;42.686;23.362;2023-11-19T07:02:31;162882.34;;;2.62;73.69
41688;BME280;27371;42.686;23.362;2023-11-19T07:04:56;162948.81;;;2.88;72.90
41688;BME280;27371;42.686;23.362;2023-11-19T07:07:22;162972.75;;;2.97;71.49
41688;BME280;27371;42.686;23.362;2023-11-19T07:09:48;162983.41;;;3.01;70.83
41688;BME280;27371;42.686;23.362;2023-11-19T07:12:14;162926.22;;;2.79;71.24
41688;BME280;27371;42.686;23.362;2023-11-19T07:14:40;162928.88;;;2.80;71.49
41688;BME280;27371;42.686;23.362;2023-11-19T07:17:07;162902.25;;;2.70;71.45
41688;BME280;27371;42.686;23.362;2023-11-19T07:19:34;162900.94;;;2.70;71.55
41688;BME280;27371;42.686;23.362;2023-11-19T07:22:00;162877.03;;;2.60;71.66
41688;BME280;27371;42.686;23.362;2023-11-19T07:24:26;162861.09;;;2.54;71.86
41688;BME280;27371;42.686;23.362;2023-11-19T07:26:53;162866.38;;;2.56;72.20
41688;BME280;27371;42.686;23.362;2023-11-19T07:29:19;162845.09;;;2.48;72.55
41688;BME280;27371;42.686;23.362;2023-11-19T07:31:48;162834.47;;;2.44;72.53
41688;BME280;27371;42.686;23.362;2023-11-19T07:34:15;162826.50;;;2.41;72.74
41688;BME280;27371;42.686;23.362;2023-11-19T07:36:40;162793.25;;;2.28;72.57
41688;BME280;27371;42.686;23.362;2023-11-19T07:39:07;162810.56;;;2.35;72.73
41688;BME280;27371;42.686;23.362;2023-11-19T07:41:33;162793.25;;;2.28;73.15
41688;BME280;27371;42.686;23.362;2023-11-19T07:43:59;162782.66;;;2.24;72.87
41688;BME280;27371;42.686;23.362;2023-11-19T07:46:25;162807.88;;;2.34;72.99
41688;BME280;27371;42.686;23.362;2023-11-19T07:48:51;162813.22;;;2.36;72.19
41688;BME280;27371;42.686;23.362;2023-11-19T07:51:17;162765.34;;;2.17;72.10
41688;BME280;27371;42.686;23.362;2023-11-19T07:53:43;162831.84;;;2.43;72.14
41688;BME280;27371;42.686;23.362;2023-11-19T07:56:08;162851.75;;;2.51;71.71
41688;BME280;27371;42.686;23.362;2023-11-19T07:58:34;162891.66;;;2.66;71.49
41688;BME280;27371;42.686;23.362;2023-11-19T08:01:00;162919.56;;;2.77;70.84
41688;BME280;27371;42.686;23.362;2023-11-19T08:03:27;162952.84;;;2.89;70.46
41688;BME280;27371;42.686;23.362;2023-11-19T08:05:55;163037.91;;;3.22;69.83
41688;BME280;27371;42.686;23.362;2023-11-19T08:08:21;163092.47;;;3.43;68.28
41688;BME280;27371;42.686;23.362;2023-11-19T08:10:47;163087.13;;;3.41;67.87
41688;BME280;27371;42.686;23.362;2023-11-19T08:13:13;163081.84;;;3.39;67.83
41688;BME280;27371;42.686;23.362;2023-11-19T08:15:38;163045.94;;;3.25;68.03
41688;BME280;27371;42.686;23.362;2023-11-19T08:18:04;163018.00;;;3.15;68.42
41688;BME280;27371;42.686;23.362;2023-11-19T08:20:31;163028.59;;;3.19;68.25
41688;BME280;27371;42.686;23.362;2023-11-19T08:22:56;163028.59;;;3.19;68.39
41688;BME280;27371;42.686;23.362;2023-11-19T08:25:22;163035.25;;;3.21;68.74
41688;BME280;27371;42.686;23.362;2023-11-19T08:27:48;163032.63;;;3.20;67.83
41688;BME280;27371;42.686;23.362;2023-11-19T08:30:14;163037.91;;;3.22;67.88
41688;BME280;27371;42.686;23.362;2023-11-19T08:32:39;162980.72;;;3.00;68.11
41688;BME280;27371;42.686;23.362;2023-11-19T08:35:05;162919.56;;;2.77;68.79
41688;BME280;27371;42.686;23.362;2023-11-19T08:37:30;162911.59;;;2.74;69.75
41688;BME280;27371;42.686;23.362;2023-11-19T08:39:56;162916.94;;;2.76;70.53
41688;BME280;27371;42.686;23.362;2023-11-19T08:42:22;162861.09;;;2.54;70.88
41688;BME280;27371;42.686;23.362;2023-11-19T08:44:50;162922.22;;;2.78;69.89
41688;BME280;27371;42.686;23.362;2023-11-19T08:47:19;162930.19;;;2.81;69.74
41688;BME280;27371;42.686;23.362;2023-11-19T08:49:45;162916.94;;;2.76;69.81
41688;BME280;27371;42.686;23.362;2023-11-19T08:52:11;162898.31;;;2.68;69.73
41688;BME280;27371;42.686;23.362;2023-11-19T08:54:37;162924.91;;;2.79;69.71
41688;BME280;27371;42.686;23.362;2023-11-19T08:57:03;162900.94;;;2.70;69.31
41688;BME280;27371;42.686;23.362;2023-11-19T08:59:29;162918.25;;;2.76;69.34
41688;BME280;27371;42.686;23.362;2023-11-19T09:01:55;162922.22;;;2.78;69.23
41688;BME280;27371;42.686;23.362;2023-11-19T09:04:21;162916.94;;;2.76;69.12
41688;BME280;27371;42.686;23.362;2023-11-19T09:06:48;163025.97;;;3.18;70.66
41688;BME280;27371;42.686;23.362;2023-11-19T09:09:14;162983.41;;;3.01;68.15
41688;BME280;27371;42.686;23.362;2023-11-19T09:11:40;162956.81;;;2.91;68.14
41688;BME280;27371;42.686;23.362;2023-11-19T09:14:05;162923.53;;;2.78;68.97
41688;BME280;27371;42.686;23.362;2023-11-19T09:16:31;162895.66;;;2.67;68.80
41688;BME280;27371;42.686;23.362;2023-11-19T09:18:57;162902.25;;;2.70;69.19
41688;BME280;27371;42.686;23.362;2023-11-19T09:21:25;162928.88;;;2.80;69.26
41688;BME280;27371;42.686;23.362;2023-11-19T09:23:50;162936.84;;;2.83;68.82
41688;BME280;27371;42.686;23.362;2023-11-19T09:26:16;162951.47;;;2.89;68.51
41688;BME280;27371;42.686;23.362;2023-11-19T09:28:41;162964.78;;;2.94;68.15
41688;BME280;27371;42.686;23.362;2023-11-19T09:31:17;163006.00;;;3.10;67.87
41688;BME280;27371;42.686;23.362;2023-11-19T09:33:43;163020.63;;;3.16;67.64
41688;BME280;27371;42.686;23.362;2023-11-19T09:36:09;162982.09;;;3.01;67.77
41688;BME280;27371;42.686;23.362;2023-11-19T09:38:36;163014.00;;;3.13;69.05
41688;BME280;27371;42.686;23.362;2023-11-19T09:41:06;163028.59;;;3.19;68.29
41688;BME280;27371;42.686;23.362;2023-11-19T09:43:35;163031.25;;;3.20;67.09
41688;BME280;27371;42.686;23.362;2023-11-19T09:46:05;163020.63;;;3.16;66.96
41688;BME280;27371;42.686;23.362;2023-11-19T09:48:35;163008.66;;;3.11;67.20
41688;BME280;27371;42.686;23.362;2023-11-19T09:51:01;163045.94;;;3.25;67.28
41688;BME280;27371;42.686;23.362;2023-11-19T09:53:27;163032.63;;;3.20;66.41
41688;BME280;27371;42.686;23.362;2023-11-19T09:55:53;163059.19;;;3.30;66.27
41688;BME280;27371;42.686;23.362;2023-11-19T09:58:20;163068.53;;;3.34;66.13
41688;BME280;27371;42.686;23.362;2023-11-19T10:00:47;163089.81;;;3.42;65.85
41688;BME280;27371;42.686;23.362;2023-11-19T10:03:13;163109.72;;;3.50;65.63
41688;BME280;27371;42.686;23.362;2023-11-19T10:05:39;163132.41;;;3.59;64.65
41688;BME280;27371;42.686;23.362;2023-11-19T10:08:06;163156.31;;;3.68;64.62
41688;BME280;27371;42.686;23.362;2023-11-19T10:10:33;163198.91;;;3.84;64.69
41688;BME280;27371;42.686;23.362;2023-11-19T10:12:59;163204.25;;;3.86;64.24
41688;BME280;27371;42.686;23.362;2023-11-19T10:15:26;163218.88;;;3.92;64.06
41688;BME280;27371;42.686;23.362;2023-11-19T10:17:58;163225.53;;;3.94;64.46
41688;BME280;27371;42.686;23.362;2023-11-19T10:20:23;163238.78;;;3.99;64.08
41688;BME280;27371;42.686;23.362;2023-11-19T10:22:52;163240.16;;;4.00;64.28
41688;BME280;27371;42.686;23.362;2023-11-19T10:25:28;163254.81;;;4.06;63.77
41688;BME280;27371;42.686;23.362;2023-11-19T10:27:56;163293.38;;;4.20;63.44
41688;BME280;27371;42.686;23.362;2023-11-19T10:30:26;163274.72;;;4.13;63.60
41688;BME280;27371;42.686;23.362;2023-11-19T10:33:13;163233.50;;;3.97;63.95
41688;BME280;27371;42.686;23.362;2023-11-19T10:35:58;163218.88;;;3.92;64.46
41688;BME280;27371;42.686;23.362;2023-11-19T10:38:25;163241.50;;;4.00;64.13
41688;BME280;27371;42.686;23.362;2023-11-19T10:40:52;163261.47;;;4.08;64.16
41688;BME280;27371;42.686;23.362;2023-11-19T10:43:18;163292.06;;;4.20;63.35
41688;BME280;27371;42.686;23.362;2023-11-19T10:45:44;163298.72;;;4.22;62.88
41688;BME280;27371;42.686;23.362;2023-11-19T10:48:11;163276.09;;;4.14;62.71
41688;BME280;27371;42.686;23.362;2023-11-19T10:50:39;163240.16;;;4.00;62.86
41688;BME280;27371;42.686;23.362;2023-11-19T10:53:06;163238.78;;;3.99;62.97
41688;BME280;27371;42.686;23.362;2023-11-19T10:55:33;163214.88;;;3.90;63.25
41688;BME280;27371;42.686;23.362;2023-11-19T10:58:15;163260.09;;;4.08;63.70
41688;BME280;27371;42.686;23.362;2023-11-19T11:00:48;163304.06;;;4.24;63.36
41688;BME280;27371;42.686;23.362;2023-11-19T11:03:20;163322.66;;;4.32;62.55
41688;BME280;27371;42.686;23.362;2023-11-19T11:05:50;163328.00;;;4.34;62.34
41688;BME280;27371;42.686;23.362;2023-11-19T11:08:18;163282.75;;;4.16;62.39
41688;BME280;27371;42.686;23.362;2023-11-19T11:10:54;163300.03;;;4.23;62.67
41688;BME280;27371;42.686;23.362;2023-11-19T11:13:22;163313.34;;;4.28;62.46
41688;BME280;27371;42.686;23.362;2023-11-19T11:15:49;163321.34;;;4.31;62.72
41688;BME280;27371;42.686;23.362;2023-11-19T11:18:16;163354.63;;;4.44;63.02
41688;BME280;27371;42.686;23.362;2023-11-19T11:20:44;163375.94;;;4.52;62.04
41688;BME280;27371;42.686;23.362;2023-11-19T11:31:48;163479.75;;;4.92;60.96
41688;BME280;27371;42.686;23.362;2023-11-19T11:37:17;163538.34;;;5.14;60.46
41688;BME280;27371;42.686;23.362;2023-11-19T11:39:46;163510.38;;;5.04;59.45
41688;BME280;27371;42.686;23.362;2023-11-19T11:44:59;163485.09;;;4.94;58.96
41688;BME280;27371;42.686;23.362;2023-11-19T11:50:24;163467.75;;;4.87;59.00
41688;BME280;27371;42.686;23.362;2023-11-19T11:55:36;163447.81;;;4.80;60.70
41688;BME280;27371;42.686;23.362;2023-11-19T11:58:02;163418.47;;;4.68;60.99
41688;BME280;27371;42.686;23.362;2023-11-19T12:03:05;163382.53;;;4.55;61.68
41688;BME280;27371;42.686;23.362;2023-11-19T12:05:32;163329.31;;;4.34;62.30
41688;BME280;27371;42.686;23.362;2023-11-19T12:08:04;163281.38;;;4.16;62.72
41688;BME280;27371;42.686;23.362;2023-11-19T12:10:36;163265.44;;;4.10;63.46
41688;BME280;27371;42.686;23.362;2023-11-19T12:13:04;163272.09;;;4.12;63.19
41688;BME280;27371;42.686;23.362;2023-11-19T12:15:33;163290.72;;;4.19;63.53
41688;BME280;27371;42.686;23.362;2023-11-19T12:17:58;163308.03;;;4.26;62.48
41688;BME280;27371;42.686;23.362;2023-11-19T12:20:25;163317.31;;;4.30;62.58
41688;BME280;27371;42.686;23.362;2023-11-19T12:22:53;163305.38;;;4.25;62.58
41688;BME280;27371;42.686;23.362;2023-11-19T12:25:19;163312.03;;;4.28;62.54
41688;BME280;27371;42.686;23.362;2023-11-19T12:27:52;163323.97;;;4.32;62.47
41688;BME280;27371;42.686;23.362;2023-11-19T12:30:22;163325.31;;;4.33;62.64
41688;BME280;27371;42.686;23.362;2023-11-19T12:32:49;163294.69;;;4.21;62.78
41688;BME280;27371;42.686;23.362;2023-11-19T12:35:15;163331.97;;;4.35;62.70
41688;BME280;27371;42.686;23.362;2023-11-19T12:37:48;163205.56;;;3.87;62.72
41688;BME280;27371;42.686;23.362;2023-11-19T12:40:16;163375.94;;;4.52;62.83
41688;BME280;27371;42.686;23.362;2023-11-19T12:42:46;163340.00;;;4.38;62.94
41688;BME280;27371;42.686;23.362;2023-11-19T12:45:12;163341.31;;;4.39;62.96
41688;BME280;27371;42.686;23.362;2023-11-19T12:47:39;163350.63;;;4.42;63.01
41688;BME280;27371;42.686;23.362;2023-11-19T12:50:07;163387.88;;;4.57;63.19
41688;BME280;27371;42.686;23.362;2023-11-19T12:52:34;163405.22;;;4.63;62.36
41688;BME280;27371;42.686;23.362;2023-11-19T12:55:00;163390.56;;;4.58;62.28
41688;BME280;27371;42.686;23.362;2023-11-19T12:57:39;163405.22;;;4.63;62.11
41688;BME280;27371;42.686;23.362;2023-11-19T13:00:05;163340.00;;;4.38;62.94
41688;BME280;27371;42.686;23.362;2023-11-19T13:02:45;163244.13;;;4.01;64.03
41688;BME280;27371;42.686;23.362;2023-11-19T13:05:31;163282.75;;;4.16;64.14
41688;BME280;27371;42.686;23.362;2023-11-19T13:08:04;163304.06;;;4.24;63.92
41688;BME280;27371;42.686;23.362;2023-11-19T13:10:31;163326.66;;;4.33;63.80
41688;BME280;27371;42.686;23.362;2023-11-19T13:13:09;163347.97;;;4.41;63.24
41688;BME280;27371;42.686;23.362;2023-11-19T13:15:35;163353.25;;;4.43;63.50